sensor_id;sensor_type;location;lat;lon;timestamp;P1;durP1;ratioP1;P2;durP2;ratioP2
68192;SDS011;55012;47.562;18.414;2023-09-07T00:00:47;5.68;;;4.07;;
68192;SDS011;55012;47.562;18.414;2023-09-07T00:03:13;10.65;;;4.40;;
68192;SDS011;55012;47.562;18.414;2023-09-07T00:05:39;6.22;;;4.18;;
68192;SDS011;55012;47.562;18.414;2023-09-07T00:08:05;8.20;;;4.50;;
68192;SDS011;55012;47.562;18.414;2023-09-07T00:10:31;8.32;;;4.10;;
68192;SDS011;55012;47.562;18.414;2023-09-07T00:13:00;7.50;;;4.45;;
68192;SDS011;55012;47.562;18.414;2023-09-07T00:15:27;8.27;;;4.20;;
68192;SDS011;55012;47.562;18.414;2023-09-07T00:17:53;7.95;;;4.68;;
68192;SDS011;55012;47.562;18.414;2023-09-07T00:20:19;8.35;;;4.78;;
68192;SDS011;55012;47.562;18.414;2023-09-07T00:22:46;8.27;;;4.70;;
68192;SDS011;55012;47.562;18.414;2023-09-07T00:25:12;7.70;;;4.50;;
68192;SDS011;55012;47.562;18.414;2023-09-07T00:27:38;7.82;;;4.75;;
68192;SDS011;55012;47.562;18.414;2023-09-07T00:30:04;9.60;;;4.90;;
68192;SDS011;55012;47.562;18.414;2023-09-07T00:32:31;8.70;;;4.50;;
68192;SDS011;55012;47.562;18.414;2023-09-07T00:34:58;12.32;;;4.72;;
68192;SDS011;55012;47.562;18.414;2023-09-07T00:37:23;10.13;;;4.95;;
68192;SDS011;55012;47.562;18.414;2023-09-07T00:39:49;10.57;;;5.50;;
68192;SDS011;55012;47.562;18.414;2023-09-07T00:42:14;8.27;;;5.13;;
68192;SDS011;55012;47.562;18.414;2023-09-07T00:44:40;10.52;;;5.65;;
68192;SDS011;55012;47.562;18.414;2023-09-07T00:47:05;9.70;;;5.90;;
68192;SDS011;55012;47.562;18.414;2023-09-07T00:49:31;11.23;;;5.90;;
68192;SDS011;55012;47.562;18.414;2023-09-07T00:51:56;10.88;;;5.72;;
68192;SDS011;55012;47.562;18.414;2023-09-07T00:54:22;10.77;;;5.95;;
68192;SDS011;55012;47.562;18.414;2023-09-07T00:56:48;12.82;;;5.78;;
68192;SDS011;55012;47.562;18.414;2023-09-07T00:59:14;9.05;;;5.28;;
68192;SDS011;55012;47.562;18.414;2023-09-07T01:01:39;12.57;;;4.95;;
68192;SDS011;55012;47.562;18.414;2023-09-07T01:04:06;10.35;;;4.70;;
68192;SDS011;55012;47.562;18.414;2023-09-07T01:06:33;12.43;;;5.05;;
68192;SDS011;55012;47.562;18.414;2023-09-07T01:09:08;12.10;;;5.90;;
68192;SDS011;55012;47.562;18.414;2023-09-07T01:11:44;18.13;;;8.10;;
68192;SDS011;55012;47.562;18.414;2023-09-07T01:14:10;15.70;;;6.95;;
68192;SDS011;55012;47.562;18.414;2023-09-07T01:16:36;16.90;;;7.35;;
68192;SDS011;55012;47.562;18.414;2023-09-07T01:19:04;10.68;;;6.88;;
68192;SDS011;55012;47.562;18.414;2023-09-07T01:21:34;13.35;;;6.45;;
68192;SDS011;55012;47.562;18.414;2023-09-07T01:24:02;11.65;;;6.13;;
68192;SDS011;55012;47.562;18.414;2023-09-07T01:26:31;11.13;;;5.97;;
68192;SDS011;55012;47.562;18.414;2023-09-07T01:28:56;13.32;;;5.80;;
68192;SDS011;55012;47.562;18.414;2023-09-07T01:31:22;12.13;;;5.63;;
68192;SDS011;55012;47.562;18.414;2023-09-07T01:33:47;8.80;;;5.05;;
68192;SDS011;55012;47.562;18.414;2023-09-07T01:36:13;13.98;;;5.75;;
68192;SDS011;55012;47.562;18.414;2023-09-07T01:38:38;13.60;;;5.28;;
68192;SDS011;55012;47.562;18.414;2023-09-07T01:41:04;12.75;;;5.07;;
68192;SDS011;55012;47.562;18.414;2023-09-07T01:43:29;11.63;;;4.80;;
68192;SDS011;55012;47.562;18.414;2023-09-07T01:45:54;10.75;;;4.63;;
68192;SDS011;55012;47.562;18.414;2023-09-07T01:48:20;7.78;;;4.53;;
68192;SDS011;55012;47.562;18.414;2023-09-07T01:50:45;7.88;;;4.50;;
68192;SDS011;55012;47.562;18.414;2023-09-07T01:53:11;6.47;;;4.00;;
68192;SDS011;55012;47.562;18.414;2023-09-07T01:55:36;6.55;;;4.10;;
68192;SDS011;55012;47.562;18.414;2023-09-07T01:58:02;6.97;;;4.00;;
68192;SDS011;55012;47.562;18.414;2023-09-07T02:00:27;5.85;;;3.60;;
68192;SDS011;55012;47.562;18.414;2023-09-07T02:02:53;7.90;;;3.88;;
68192;SDS011;55012;47.562;18.414;2023-09-07T02:05:19;6.07;;;3.75;;
68192;SDS011;55012;47.562;18.414;2023-09-07T02:07:46;5.20;;;3.53;;
68192;SDS011;55012;47.562;18.414;2023-09-07T02:10:14;6.30;;;3.55;;
68192;SDS011;55012;47.562;18.414;2023-09-07T02:12:40;5.45;;;3.70;;
68192;SDS011;55012;47.562;18.414;2023-09-07T02:15:06;5.03;;;3.53;;
68192;SDS011;55012;47.562;18.414;2023-09-07T02:17:31;6.45;;;3.50;;
68192;SDS011;55012;47.562;18.414;2023-09-07T02:19:57;7.32;;;3.50;;
68192;SDS011;55012;47.562;18.414;2023-09-07T02:22:22;6.35;;;3.80;;
68192;SDS011;55012;47.562;18.414;2023-09-07T02:24:48;5.30;;;3.60;;
68192;SDS011;55012;47.562;18.414;2023-09-07T02:27:13;5.55;;;3.40;;
68192;SDS011;55012;47.562;18.414;2023-09-07T02:29:39;5.85;;;3.50;;
68192;SDS011;55012;47.562;18.414;2023-09-07T02:32:04;5.43;;;3.72;;
68192;SDS011;55012;47.562;18.414;2023-09-07T02:34:30;5.05;;;3.30;;
68192;SDS011;55012;47.562;18.414;2023-09-07T02:36:56;5.25;;;3.60;;
68192;SDS011;55012;47.562;18.414;2023-09-07T02:39:22;7.00;;;3.70;;
68192;SDS011;55012;47.562;18.414;2023-09-07T02:41:51;4.88;;;3.50;;
68192;SDS011;55012;47.562;18.414;2023-09-07T02:44:17;5.68;;;3.75;;
68192;SDS011;55012;47.562;18.414;2023-09-07T02:46:42;5.22;;;3.70;;
68192;SDS011;55012;47.562;18.414;2023-09-07T02:49:08;5.10;;;3.67;;
68192;SDS011;55012;47.562;18.414;2023-09-07T02:51:33;5.18;;;3.42;;
68192;SDS011;55012;47.562;18.414;2023-09-07T02:53:59;5.50;;;3.60;;
68192;SDS011;55012;47.562;18.414;2023-09-07T02:56:26;5.88;;;3.92;;
68192;SDS011;55012;47.562;18.414;2023-09-07T02:58:51;7.18;;;4.20;;
68192;SDS011;55012;47.562;18.414;2023-09-07T03:01:17;7.93;;;5.20;;
68192;SDS011;55012;47.562;18.414;2023-09-07T03:03:45;6.28;;;4.07;;
68192;SDS011;55012;47.562;18.414;2023-09-07T03:06:11;5.57;;;3.97;;
68192;SDS011;55012;47.562;18.414;2023-09-07T03:08:38;5.55;;;3.83;;
68192;SDS011;55012;47.562;18.414;2023-09-07T03:11:05;7.47;;;3.80;;
68192;SDS011;55012;47.562;18.414;2023-09-07T03:13:31;8.18;;;4.15;;
68192;SDS011;55012;47.562;18.414;2023-09-07T03:15:56;7.45;;;4.05;;
68192;SDS011;55012;47.562;18.414;2023-09-07T03:18:22;6.15;;;4.13;;
68192;SDS011;55012;47.562;18.414;2023-09-07T03:20:48;5.68;;;4.10;;
68192;SDS011;55012;47.562;18.414;2023-09-07T03:23:14;6.65;;;4.25;;
68192;SDS011;55012;47.562;18.414;2023-09-07T03:25:40;7.68;;;4.20;;
68192;SDS011;55012;47.562;18.414;2023-09-07T03:28:06;8.13;;;4.43;;
68192;SDS011;55012;47.562;18.414;2023-09-07T03:30:31;7.40;;;4.20;;
68192;SDS011;55012;47.562;18.414;2023-09-07T03:32:57;10.23;;;5.55;;
68192;SDS011;55012;47.562;18.414;2023-09-07T03:35:23;6.03;;;4.35;;
68192;SDS011;55012;47.562;18.414;2023-09-07T03:37:48;6.78;;;4.35;;
68192;SDS011;55012;47.562;18.414;2023-09-07T03:40:13;6.80;;;4.35;;
68192;SDS011;55012;47.562;18.414;2023-09-07T03:42:39;5.80;;;4.28;;
68192;SDS011;55012;47.562;18.414;2023-09-07T03:45:05;7.47;;;4.35;;
68192;SDS011;55012;47.562;18.414;2023-09-07T03:47:30;7.68;;;4.53;;
68192;SDS011;55012;47.562;18.414;2023-09-07T03:49:56;10.32;;;5.13;;
68192;SDS011;55012;47.562;18.414;2023-09-07T03:52:22;9.15;;;4.82;;
68192;SDS011;55012;47.562;18.414;2023-09-07T03:54:50;10.75;;;5.38;;
68192;SDS011;55012;47.562;18.414;2023-09-07T03:57:17;17.00;;;8.07;;
68192;SDS011;55012;47.562;18.414;2023-09-07T03:59:43;12.10;;;5.63;;
68192;SDS011;55012;47.562;18.414;2023-09-07T04:02:09;10.45;;;5.38;;
68192;SDS011;55012;47.562;18.414;2023-09-07T04:04:34;10.00;;;5.50;;
68192;SDS011;55012;47.562;18.414;2023-09-07T04:06:59;7.85;;;5.28;;
68192;SDS011;55012;47.562;18.414;2023-09-07T04:09:25;15.00;;;5.80;;
68192;SDS011;55012;47.562;18.414;2023-09-07T04:11:50;9.07;;;5.38;;
68192;SDS011;55012;47.562;18.414;2023-09-07T04:14:16;11.90;;;5.47;;
68192;SDS011;55012;47.562;18.414;2023-09-07T04:16:41;10.20;;;5.47;;
68192;SDS011;55012;47.562;18.414;2023-09-07T04:19:07;11.05;;;5.97;;
68192;SDS011;55012;47.562;18.414;2023-09-07T04:21:33;12.68;;;5.78;;
68192;SDS011;55012;47.562;18.414;2023-09-07T04:23:58;12.82;;;6.03;;
68192;SDS011;55012;47.562;18.414;2023-09-07T04:26:23;11.93;;;5.20;;
68192;SDS011;55012;47.562;18.414;2023-09-07T04:28:49;10.88;;;5.35;;
68192;SDS011;55012;47.562;18.414;2023-09-07T04:31:14;11.27;;;5.40;;
68192;SDS011;55012;47.562;18.414;2023-09-07T04:33:40;8.60;;;4.72;;
68192;SDS011;55012;47.562;18.414;2023-09-07T04:36:12;8.18;;;4.95;;
68192;SDS011;55012;47.562;18.414;2023-09-07T04:38:39;7.03;;;4.72;;
68192;SDS011;55012;47.562;18.414;2023-09-07T04:41:12;6.97;;;4.47;;
68192;SDS011;55012;47.562;18.414;2023-09-07T04:43:39;9.93;;;4.50;;
68192;SDS011;55012;47.562;18.414;2023-09-07T04:46:07;6.90;;;4.22;;
68192;SDS011;55012;47.562;18.414;2023-09-07T04:48:33;7.75;;;4.38;;
68192;SDS011;55012;47.562;18.414;2023-09-07T04:53:27;7.63;;;4.72;;
68192;SDS011;55012;47.562;18.414;2023-09-07T04:56:03;12.43;;;6.00;;
68192;SDS011;55012;47.562;18.414;2023-09-07T04:58:29;9.60;;;5.50;;
68192;SDS011;55012;47.562;18.414;2023-09-07T05:01:01;11.13;;;6.53;;
68192;SDS011;55012;47.562;18.414;2023-09-07T05:03:34;11.57;;;6.38;;
68192;SDS011;55012;47.562;18.414;2023-09-07T05:06:00;12.70;;;6.75;;
68192;SDS011;55012;47.562;18.414;2023-09-07T05:08:26;14.38;;;6.78;;
68192;SDS011;55012;47.562;18.414;2023-09-07T05:10:58;14.27;;;6.35;;
68192;SDS011;55012;47.562;18.414;2023-09-07T05:13:25;12.27;;;6.18;;
68192;SDS011;55012;47.562;18.414;2023-09-07T05:15:51;10.90;;;5.63;;
68192;SDS011;55012;47.562;18.414;2023-09-07T05:18:18;10.13;;;5.05;;
68192;SDS011;55012;47.562;18.414;2023-09-07T05:20:44;10.75;;;5.43;;
68192;SDS011;55012;47.562;18.414;2023-09-07T05:23:11;9.48;;;5.10;;
68192;SDS011;55012;47.562;18.414;2023-09-07T05:25:47;9.20;;;4.93;;
68192;SDS011;55012;47.562;18.414;2023-09-07T05:28:15;8.23;;;4.95;;
68192;SDS011;55012;47.562;18.414;2023-09-07T05:30:41;10.63;;;5.13;;
68192;SDS011;55012;47.562;18.414;2023-09-07T05:33:11;13.10;;;5.25;;
68192;SDS011;55012;47.562;18.414;2023-09-07T05:35:37;17.20;;;6.50;;
68192;SDS011;55012;47.562;18.414;2023-09-07T05:38:06;20.60;;;6.63;;
68192;SDS011;55012;47.562;18.414;2023-09-07T05:40:38;19.20;;;6.80;;
68192;SDS011;55012;47.562;18.414;2023-09-07T05:43:05;16.85;;;7.55;;
68192;SDS011;55012;47.562;18.414;2023-09-07T05:45:33;15.50;;;7.38;;
68192;SDS011;55012;47.562;18.414;2023-09-07T05:48:01;27.10;;;9.95;;
68192;SDS011;55012;47.562;18.414;2023-09-07T05:50:27;26.23;;;9.27;;
68192;SDS011;55012;47.562;18.414;2023-09-07T05:52:53;20.15;;;8.45;;
68192;SDS011;55012;47.562;18.414;2023-09-07T05:55:18;34.42;;;10.93;;
68192;SDS011;55012;47.562;18.414;2023-09-07T05:57:44;18.77;;;8.23;;
68192;SDS011;55012;47.562;18.414;2023-09-07T06:00:10;22.05;;;8.15;;
68192;SDS011;55012;47.562;18.414;2023-09-07T06:02:36;24.83;;;8.73;;
68192;SDS011;55012;47.562;18.414;2023-09-07T06:05:02;20.63;;;9.10;;
68192;SDS011;55012;47.562;18.414;2023-09-07T06:07:27;22.98;;;9.38;;
68192;SDS011;55012;47.562;18.414;2023-09-07T06:09:53;22.63;;;8.38;;
68192;SDS011;55012;47.562;18.414;2023-09-07T06:12:18;14.90;;;7.55;;
68192;SDS011;55012;47.562;18.414;2023-09-07T06:14:44;16.20;;;7.47;;
68192;SDS011;55012;47.562;18.414;2023-09-07T06:17:11;21.67;;;7.43;;
68192;SDS011;55012;47.562;18.414;2023-09-07T06:19:37;15.13;;;6.30;;
68192;SDS011;55012;47.562;18.414;2023-09-07T06:22:02;14.75;;;6.25;;
68192;SDS011;55012;47.562;18.414;2023-09-07T06:24:28;15.80;;;5.88;;
68192;SDS011;55012;47.562;18.414;2023-09-07T06:26:53;14.07;;;5.55;;
68192;SDS011;55012;47.562;18.414;2023-09-07T06:29:18;12.68;;;4.88;;
68192;SDS011;55012;47.562;18.414;2023-09-07T06:31:44;10.75;;;4.60;;
68192;SDS011;55012;47.562;18.414;2023-09-07T06:34:09;13.07;;;4.80;;
68192;SDS011;55012;47.562;18.414;2023-09-07T06:36:35;10.73;;;4.72;;
68192;SDS011;55012;47.562;18.414;2023-09-07T06:39:00;17.25;;;4.53;;
68192;SDS011;55012;47.562;18.414;2023-09-07T06:41:26;17.80;;;4.40;;
68192;SDS011;55012;47.562;18.414;2023-09-07T06:43:52;12.18;;;4.72;;
68192;SDS011;55012;47.562;18.414;2023-09-07T06:46:18;13.13;;;4.05;;
68192;SDS011;55012;47.562;18.414;2023-09-07T06:48:43;12.45;;;3.97;;
68192;SDS011;55012;47.562;18.414;2023-09-07T06:51:08;8.68;;;3.72;;
68192;SDS011;55012;47.562;18.414;2023-09-07T06:53:34;9.30;;;3.97;;
68192;SDS011;55012;47.562;18.414;2023-09-07T06:56:00;9.55;;;3.95;;
68192;SDS011;55012;47.562;18.414;2023-09-07T06:58:27;9.88;;;4.03;;
68192;SDS011;55012;47.562;18.414;2023-09-07T07:00:52;13.60;;;4.18;;
68192;SDS011;55012;47.562;18.414;2023-09-07T07:03:22;15.27;;;4.35;;
68192;SDS011;55012;47.562;18.414;2023-09-07T07:05:47;11.52;;;4.05;;
68192;SDS011;55012;47.562;18.414;2023-09-07T07:08:13;8.18;;;3.90;;
68192;SDS011;55012;47.562;18.414;2023-09-07T07:10:38;10.15;;;4.07;;
68192;SDS011;55012;47.562;18.414;2023-09-07T07:13:03;9.15;;;4.10;;
68192;SDS011;55012;47.562;18.414;2023-09-07T07:15:29;14.65;;;3.95;;
68192;SDS011;55012;47.562;18.414;2023-09-07T07:17:54;12.63;;;4.20;;
68192;SDS011;55012;47.562;18.414;2023-09-07T07:20:20;15.68;;;4.28;;
68192;SDS011;55012;47.562;18.414;2023-09-07T07:22:45;11.98;;;4.13;;
68192;SDS011;55012;47.562;18.414;2023-09-07T07:25:11;10.73;;;4.20;;
68192;SDS011;55012;47.562;18.414;2023-09-07T07:27:36;14.40;;;4.40;;
68192;SDS011;55012;47.562;18.414;2023-09-07T07:30:02;7.72;;;3.85;;
68192;SDS011;55012;47.562;18.414;2023-09-07T07:32:28;10.57;;;3.70;;
68192;SDS011;55012;47.562;18.414;2023-09-07T07:34:53;6.82;;;3.95;;
68192;SDS011;55012;47.562;18.414;2023-09-07T07:37:19;11.95;;;4.05;;
68192;SDS011;55012;47.562;18.414;2023-09-07T07:39:44;9.50;;;3.83;;
68192;SDS011;55012;47.562;18.414;2023-09-07T07:42:10;7.53;;;3.80;;
68192;SDS011;55012;47.562;18.414;2023-09-07T07:44:35;10.73;;;3.92;;
68192;SDS011;55012;47.562;18.414;2023-09-07T07:47:01;12.38;;;4.10;;
68192;SDS011;55012;47.562;18.414;2023-09-07T07:49:26;8.63;;;3.92;;
68192;SDS011;55012;47.562;18.414;2023-09-07T07:51:52;14.13;;;4.30;;
68192;SDS011;55012;47.562;18.414;2023-09-07T07:54:20;7.50;;;4.30;;
68192;SDS011;55012;47.562;18.414;2023-09-07T07:56:47;6.95;;;3.80;;
68192;SDS011;55012;47.562;18.414;2023-09-07T07:59:13;9.05;;;3.97;;
68192;SDS011;55012;47.562;18.414;2023-09-07T08:01:38;8.32;;;3.90;;
68192;SDS011;55012;47.562;18.414;2023-09-07T08:04:05;8.68;;;3.72;;
68192;SDS011;55012;47.562;18.414;2023-09-07T08:06:31;8.82;;;4.03;;
68192;SDS011;55012;47.562;18.414;2023-09-07T08:08:56;8.23;;;4.07;;
68192;SDS011;55012;47.562;18.414;2023-09-07T08:11:21;6.43;;;3.60;;
68192;SDS011;55012;47.562;18.414;2023-09-07T08:13:47;6.95;;;4.05;;
68192;SDS011;55012;47.562;18.414;2023-09-07T08:16:12;7.18;;;3.63;;
68192;SDS011;55012;47.562;18.414;2023-09-07T08:18:38;6.00;;;3.70;;
68192;SDS011;55012;47.562;18.414;2023-09-07T08:21:05;5.68;;;3.60;;
68192;SDS011;55012;47.562;18.414;2023-09-07T08:23:30;5.85;;;3.40;;
68192;SDS011;55012;47.562;18.414;2023-09-07T08:25:56;6.10;;;3.78;;
68192;SDS011;55012;47.562;18.414;2023-09-07T08:28:22;6.43;;;3.75;;
68192;SDS011;55012;47.562;18.414;2023-09-07T08:30:50;4.88;;;3.45;;
68192;SDS011;55012;47.562;18.414;2023-09-07T08:33:20;4.90;;;3.42;;
68192;SDS011;55012;47.562;18.414;2023-09-07T08:35:53;9.18;;;3.80;;
68192;SDS011;55012;47.562;18.414;2023-09-07T08:38:20;5.43;;;3.42;;
68192;SDS011;55012;47.562;18.414;2023-09-07T08:40:50;5.60;;;3.53;;
68192;SDS011;55012;47.562;18.414;2023-09-07T08:43:16;4.82;;;3.53;;
68192;SDS011;55012;47.562;18.414;2023-09-07T08:45:46;6.57;;;3.70;;
68192;SDS011;55012;47.562;18.414;2023-09-07T08:50:45;5.43;;;3.72;;
68192;SDS011;55012;47.562;18.414;2023-09-07T08:53:18;5.60;;;3.45;;
68192;SDS011;55012;47.562;18.414;2023-09-07T08:55:47;6.32;;;3.70;;
68192;SDS011;55012;47.562;18.414;2023-09-07T08:58:13;5.90;;;3.33;;
68192;SDS011;55012;47.562;18.414;2023-09-07T09:00:39;6.22;;;3.47;;
68192;SDS011;55012;47.562;18.414;2023-09-07T09:03:08;6.82;;;4.00;;
68192;SDS011;55012;47.562;18.414;2023-09-07T09:05:35;6.63;;;3.70;;
68192;SDS011;55012;47.562;18.414;2023-09-07T09:08:02;6.57;;;3.83;;
68192;SDS011;55012;47.562;18.414;2023-09-07T09:10:31;6.68;;;3.38;;
68192;SDS011;55012;47.562;18.414;2023-09-07T09:12:57;5.70;;;3.63;;
68192;SDS011;55012;47.562;18.414;2023-09-07T09:15:25;7.57;;;3.90;;
68192;SDS011;55012;47.562;18.414;2023-09-07T09:17:53;5.05;;;3.50;;
68192;SDS011;55012;47.562;18.414;2023-09-07T09:20:19;4.85;;;3.65;;
68192;SDS011;55012;47.562;18.414;2023-09-07T09:22:47;6.80;;;3.63;;
68192;SDS011;55012;47.562;18.414;2023-09-07T09:25:15;4.75;;;3.45;;
68192;SDS011;55012;47.562;18.414;2023-09-07T09:27:40;6.05;;;3.30;;
68192;SDS011;55012;47.562;18.414;2023-09-07T09:30:06;7.95;;;3.72;;
68192;SDS011;55012;47.562;18.414;2023-09-07T09:32:32;6.05;;;3.60;;
68192;SDS011;55012;47.562;18.414;2023-09-07T09:34:57;6.22;;;3.60;;
68192;SDS011;55012;47.562;18.414;2023-09-07T09:37:25;5.32;;;3.70;;
68192;SDS011;55012;47.562;18.414;2023-09-07T09:39:51;7.38;;;3.50;;
68192;SDS011;55012;47.562;18.414;2023-09-07T09:42:18;5.97;;;3.80;;
68192;SDS011;55012;47.562;18.414;2023-09-07T09:44:45;6.10;;;3.90;;
68192;SDS011;55012;47.562;18.414;2023-09-07T09:47:14;5.88;;;3.72;;
68192;SDS011;55012;47.562;18.414;2023-09-07T09:49:40;5.10;;;3.60;;
68192;SDS011;55012;47.562;18.414;2023-09-07T09:52:06;5.93;;;3.63;;
68192;SDS011;55012;47.562;18.414;2023-09-07T09:54:33;5.57;;;3.65;;
68192;SDS011;55012;47.562;18.414;2023-09-07T09:57:00;6.55;;;3.35;;
68192;SDS011;55012;47.562;18.414;2023-09-07T09:59:25;5.10;;;3.20;;
68192;SDS011;55012;47.562;18.414;2023-09-07T10:01:52;5.45;;;3.42;;
68192;SDS011;55012;47.562;18.414;2023-09-07T10:04:19;4.50;;;3.38;;
68192;SDS011;55012;47.562;18.414;2023-09-07T10:06:53;5.32;;;3.45;;
68192;SDS011;55012;47.562;18.414;2023-09-07T10:09:33;5.82;;;3.45;;
68192;SDS011;55012;47.562;18.414;2023-09-07T10:12:01;5.47;;;3.70;;
68192;SDS011;55012;47.562;18.414;2023-09-07T10:14:37;5.85;;;3.55;;
68192;SDS011;55012;47.562;18.414;2023-09-07T10:17:04;4.53;;;3.33;;
68192;SDS011;55012;47.562;18.414;2023-09-07T10:19:29;4.68;;;3.75;;
68192;SDS011;55012;47.562;18.414;2023-09-07T10:21:55;7.47;;;3.78;;
68192;SDS011;55012;47.562;18.414;2023-09-07T10:24:28;4.22;;;3.33;;
68192;SDS011;55012;47.562;18.414;2023-09-07T10:29:28;5.47;;;3.70;;
68192;SDS011;55012;47.562;18.414;2023-09-07T10:31:53;6.15;;;3.40;;
68192;SDS011;55012;47.562;18.414;2023-09-07T10:34:19;6.13;;;3.63;;
68192;SDS011;55012;47.562;18.414;2023-09-07T10:36:47;5.57;;;3.60;;
68192;SDS011;55012;47.562;18.414;2023-09-07T10:39:13;5.55;;;3.75;;
68192;SDS011;55012;47.562;18.414;2023-09-07T10:41:42;5.05;;;3.72;;
68192;SDS011;55012;47.562;18.414;2023-09-07T10:44:08;5.53;;;3.30;;
68192;SDS011;55012;47.562;18.414;2023-09-07T10:46:35;4.60;;;3.45;;
68192;SDS011;55012;47.562;18.414;2023-09-07T10:49:02;5.53;;;3.75;;
68192;SDS011;55012;47.562;18.414;2023-09-07T10:51:28;7.28;;;3.83;;
68192;SDS011;55012;47.562;18.414;2023-09-07T10:53:54;5.32;;;3.75;;
68192;SDS011;55012;47.562;18.414;2023-09-07T10:56:20;4.30;;;3.25;;
68192;SDS011;55012;47.562;18.414;2023-09-07T10:58:50;5.55;;;3.63;;
68192;SDS011;55012;47.562;18.414;2023-09-07T11:01:19;4.95;;;3.30;;
68192;SDS011;55012;47.562;18.414;2023-09-07T11:03:45;4.78;;;3.17;;
68192;SDS011;55012;47.562;18.414;2023-09-07T11:06:17;4.68;;;3.33;;
68192;SDS011;55012;47.562;18.414;2023-09-07T11:08:48;6.13;;;3.53;;
68192;SDS011;55012;47.562;18.414;2023-09-07T11:11:14;4.90;;;3.45;;
68192;SDS011;55012;47.562;18.414;2023-09-07T11:13:40;4.80;;;3.45;;
68192;SDS011;55012;47.562;18.414;2023-09-07T11:16:08;5.55;;;3.70;;
68192;SDS011;55012;47.562;18.414;2023-09-07T11:18:35;4.93;;;3.35;;
68192;SDS011;55012;47.562;18.414;2023-09-07T11:21:01;5.68;;;3.50;;
68192;SDS011;55012;47.562;18.414;2023-09-07T11:23:29;4.75;;;3.42;;
68192;SDS011;55012;47.562;18.414;2023-09-07T11:26:01;5.47;;;3.60;;
68192;SDS011;55012;47.562;18.414;2023-09-07T11:28:30;5.60;;;3.38;;
68192;SDS011;55012;47.562;18.414;2023-09-07T11:30:55;5.00;;;3.50;;
68192;SDS011;55012;47.562;18.414;2023-09-07T11:33:21;6.95;;;3.67;;
68192;SDS011;55012;47.562;18.414;2023-09-07T11:35:47;5.78;;;3.50;;
68192;SDS011;55012;47.562;18.414;2023-09-07T11:38:14;5.75;;;3.88;;
68192;SDS011;55012;47.562;18.414;2023-09-07T11:40:41;5.25;;;3.70;;
68192;SDS011;55012;47.562;18.414;2023-09-07T11:43:10;7.43;;;3.50;;
68192;SDS011;55012;47.562;18.414;2023-09-07T11:45:37;5.38;;;3.60;;
68192;SDS011;55012;47.562;18.414;2023-09-07T11:48:03;4.63;;;3.58;;
68192;SDS011;55012;47.562;18.414;2023-09-07T11:50:29;6.20;;;3.97;;
68192;SDS011;55012;47.562;18.414;2023-09-07T11:52:55;6.35;;;4.00;;
68192;SDS011;55012;47.562;18.414;2023-09-07T11:55:21;5.40;;;3.70;;
68192;SDS011;55012;47.562;18.414;2023-09-07T11:57:47;5.55;;;4.00;;
68192;SDS011;55012;47.562;18.414;2023-09-07T12:00:13;5.75;;;3.88;;
68192;SDS011;55012;47.562;18.414;2023-09-07T12:02:40;7.70;;;3.95;;
68192;SDS011;55012;47.562;18.414;2023-09-07T12:05:06;5.38;;;3.60;;
68192;SDS011;55012;47.562;18.414;2023-09-07T12:07:35;7.38;;;3.92;;
68192;SDS011;55012;47.562;18.414;2023-09-07T12:10:01;6.68;;;3.72;;
68192;SDS011;55012;47.562;18.414;2023-09-07T12:12:27;4.82;;;3.65;;
68192;SDS011;55012;47.562;18.414;2023-09-07T12:14:52;6.00;;;3.95;;
68192;SDS011;55012;47.562;18.414;2023-09-07T12:17:18;7.43;;;4.10;;
68192;SDS011;55012;47.562;18.414;2023-09-07T12:19:44;6.40;;;4.07;;
68192;SDS011;55012;47.562;18.414;2023-09-07T12:22:11;6.45;;;3.70;;
68192;SDS011;55012;47.562;18.414;2023-09-07T12:24:37;5.85;;;4.03;;
68192;SDS011;55012;47.562;18.414;2023-09-07T12:27:02;5.60;;;4.00;;
68192;SDS011;55012;47.562;18.414;2023-09-07T12:29:28;5.10;;;3.90;;
68192;SDS011;55012;47.562;18.414;2023-09-07T12:31:56;5.40;;;4.00;;
68192;SDS011;55012;47.562;18.414;2023-09-07T12:34:22;7.07;;;4.00;;
68192;SDS011;55012;47.562;18.414;2023-09-07T12:36:47;7.88;;;4.07;;
68192;SDS011;55012;47.562;18.414;2023-09-07T12:39:14;5.95;;;3.80;;
68192;SDS011;55012;47.562;18.414;2023-09-07T12:41:39;6.32;;;4.63;;
68192;SDS011;55012;47.562;18.414;2023-09-07T12:44:05;6.65;;;4.22;;
68192;SDS011;55012;47.562;18.414;2023-09-07T12:46:31;5.32;;;3.88;;
68192;SDS011;55012;47.562;18.414;2023-09-07T12:48:57;7.10;;;4.00;;
68192;SDS011;55012;47.562;18.414;2023-09-07T12:51:22;5.60;;;4.03;;
68192;SDS011;55012;47.562;18.414;2023-09-07T12:53:48;8.20;;;4.25;;
68192;SDS011;55012;47.562;18.414;2023-09-07T12:56:13;7.15;;;4.22;;
68192;SDS011;55012;47.562;18.414;2023-09-07T12:58:40;6.03;;;4.30;;
68192;SDS011;55012;47.562;18.414;2023-09-07T13:01:06;5.80;;;4.28;;
68192;SDS011;55012;47.562;18.414;2023-09-07T13:03:35;6.35;;;4.45;;
68192;SDS011;55012;47.562;18.414;2023-09-07T13:06:03;5.82;;;4.15;;
68192;SDS011;55012;47.562;18.414;2023-09-07T13:08:28;5.93;;;4.10;;
68192;SDS011;55012;47.562;18.414;2023-09-07T13:11:00;4.85;;;3.90;;
68192;SDS011;55012;47.562;18.414;2023-09-07T13:13:25;6.38;;;4.68;;
68192;SDS011;55012;47.562;18.414;2023-09-07T13:15:53;6.53;;;3.97;;
68192;SDS011;55012;47.562;18.414;2023-09-07T13:18:23;7.32;;;4.10;;
68192;SDS011;55012;47.562;18.414;2023-09-07T13:20:48;6.80;;;3.90;;
68192;SDS011;55012;47.562;18.414;2023-09-07T13:23:34;6.07;;;4.32;;
68192;SDS011;55012;47.562;18.414;2023-09-07T13:25:59;5.70;;;4.20;;
68192;SDS011;55012;47.562;18.414;2023-09-07T13:28:26;6.70;;;4.18;;
68192;SDS011;55012;47.562;18.414;2023-09-07T13:30:51;7.03;;;4.03;;
68192;SDS011;55012;47.562;18.414;2023-09-07T13:33:16;6.82;;;4.18;;
68192;SDS011;55012;47.562;18.414;2023-09-07T13:35:42;5.47;;;4.25;;
68192;SDS011;55012;47.562;18.414;2023-09-07T13:38:08;7.65;;;4.05;;
68192;SDS011;55012;47.562;18.414;2023-09-07T13:40:34;6.68;;;4.40;;
68192;SDS011;55012;47.562;18.414;2023-09-07T13:42:59;6.55;;;4.32;;
68192;SDS011;55012;47.562;18.414;2023-09-07T13:45:25;5.90;;;3.88;;
68192;SDS011;55012;47.562;18.414;2023-09-07T13:47:50;7.45;;;4.50;;
68192;SDS011;55012;47.562;18.414;2023-09-07T13:50:16;6.10;;;4.20;;
68192;SDS011;55012;47.562;18.414;2023-09-07T13:52:41;5.82;;;4.32;;
68192;SDS011;55012;47.562;18.414;2023-09-07T13:55:07;6.45;;;4.25;;
68192;SDS011;55012;47.562;18.414;2023-09-07T13:57:33;6.95;;;4.22;;
68192;SDS011;55012;47.562;18.414;2023-09-07T13:59:59;6.53;;;4.22;;
68192;SDS011;55012;47.562;18.414;2023-09-07T14:02:25;7.85;;;4.45;;
68192;SDS011;55012;47.562;18.414;2023-09-07T14:04:51;5.82;;;4.25;;
68192;SDS011;55012;47.562;18.414;2023-09-07T14:07:16;5.57;;;4.28;;
68192;SDS011;55012;47.562;18.414;2023-09-07T14:09:42;7.10;;;4.45;;
68192;SDS011;55012;47.562;18.414;2023-09-07T14:12:08;6.15;;;4.00;;
68192;SDS011;55012;47.562;18.414;2023-09-07T14:14:33;6.93;;;4.20;;
68192;SDS011;55012;47.562;18.414;2023-09-07T14:16:59;6.15;;;4.10;;
68192;SDS011;55012;47.562;18.414;2023-09-07T14:19:25;4.93;;;4.07;;
68192;SDS011;55012;47.562;18.414;2023-09-07T14:21:55;6.78;;;4.35;;
68192;SDS011;55012;47.562;18.414;2023-09-07T14:24:24;6.50;;;4.03;;
68192;SDS011;55012;47.562;18.414;2023-09-07T14:26:50;6.85;;;4.15;;
68192;SDS011;55012;47.562;18.414;2023-09-07T14:29:16;5.63;;;4.30;;
68192;SDS011;55012;47.562;18.414;2023-09-07T14:31:41;5.65;;;3.70;;
68192;SDS011;55012;47.562;18.414;2023-09-07T14:34:08;5.47;;;4.10;;